createdAt,value
2019-02-06T00:02:07.256Z,45.70
2019-02-06T00:07:03.054Z,48.80
2019-02-06T00:11:58.882Z,45.50
2019-02-06T00:16:54.669Z,48.83
2019-02-06T00:21:50.587Z,49.57
2019-02-06T00:26:46.305Z,47.13
2019-02-06T00:31:42.290Z,49.37
2019-02-06T00:36:37.981Z,49.07
2019-02-06T00:41:33.841Z,48.10
2019-02-06T00:46:29.984Z,48.67
2019-02-06T00:51:25.957Z,48.53
2019-02-06T00:56:21.662Z,44.70
2019-02-06T01:01:17.923Z,51.87
2019-02-06T01:06:13.725Z,52.00
2019-02-06T01:11:09.843Z,46.80
2019-02-06T01:16:05.569Z,45.77
2019-02-06T01:21:01.639Z,47.13
2019-02-06T01:25:57.439Z,46.97
2019-02-06T01:30:55.080Z,47.53
2019-02-06T01:35:50.801Z,40.23
2019-02-06T01:40:46.760Z,38.90
2019-02-06T01:45:42.499Z,41.00
2019-02-06T01:50:38.208Z,46.20
2019-02-06T01:55:34.167Z,39.97
2019-02-06T02:00:30.075Z,40.27
2019-02-06T02:05:26.365Z,39.80
2019-02-06T02:10:22.147Z,33.30
2019-02-06T02:15:18.273Z,36.13
2019-02-06T02:20:15.187Z,38.93
2019-02-06T02:25:11.071Z,34.77
2019-02-06T02:30:08.966Z,36.53
2019-02-06T02:35:05.588Z,34.93
2019-02-06T02:40:01.492Z,29.63
2019-02-06T02:44:57.331Z,31.60
2019-02-06T02:49:53.054Z,34.77
2019-02-06T02:54:49.164Z,32.63
2019-02-06T02:59:44.957Z,30.73
2019-02-06T03:04:40.939Z,35.33
2019-02-06T03:09:36.620Z,36.00
2019-02-06T03:14:32.378Z,33.67
2019-02-06T03:19:28.135Z,32.27
2019-02-06T03:24:23.844Z,31.93
2019-02-06T03:29:19.841Z,34.77
2019-02-06T03:34:15.564Z,39.30
2019-02-06T03:39:11.334Z,36.27
2019-02-06T03:44:07.105Z,30.13
2019-02-06T03:49:02.923Z,35.93
2019-02-06T03:53:58.736Z,33.07
2019-02-06T03:58:54.448Z,35.70
2019-02-06T04:03:50.554Z,31.57
2019-02-06T04:08:46.355Z,40.20
2019-02-06T04:13:42.090Z,38.23
2019-02-06T04:18:37.913Z,33.80
2019-02-06T04:23:33.720Z,39.20
2019-02-06T04:28:29.449Z,30.80
2019-02-06T04:33:25.153Z,32.97
2019-02-06T04:38:21.492Z,36.37
2019-02-06T04:43:17.470Z,30.77
2019-02-06T04:48:13.467Z,35.77
2019-02-06T04:53:09.302Z,28.63
2019-02-06T04:58:05.077Z,30.33
2019-02-06T05:03:00.889Z,34.07
2019-02-06T05:07:56.562Z,34.13
2019-02-06T05:12:52.695Z,34.67
2019-02-06T05:17:48.594Z,28.20
2019-02-06T05:22:44.449Z,29.67
2019-02-06T05:27:40.196Z,32.40
2019-02-06T05:32:35.907Z,30.90
2019-02-06T05:37:32.526Z,31.77
2019-02-06T05:42:28.318Z,35.67
2019-02-06T05:47:24.161Z,34.17
2019-02-06T05:52:19.926Z,31.17
2019-02-06T05:57:15.620Z,37.67
2019-02-06T06:02:11.431Z,36.63
2019-02-06T06:07:07.486Z,32.93
2019-02-06T06:12:03.250Z,38.93
2019-02-06T06:16:59.003Z,32.17
2019-02-06T06:21:54.916Z,32.67
2019-02-06T06:26:50.698Z,35.47
2019-02-06T06:31:46.419Z,36.37
2019-02-06T06:36:42.371Z,35.80
2019-02-06T06:41:38.181Z,37.73
2019-02-06T06:46:33.912Z,37.00
2019-02-06T06:51:29.919Z,35.13
2019-02-06T06:56:25.617Z,35.47
2019-02-06T07:01:21.527Z,34.73
2019-02-06T07:06:17.340Z,36.10
2019-02-06T07:11:13.155Z,37.50
2019-02-06T07:16:08.963Z,33.87
2019-02-06T07:21:04.766Z,36.50
2019-02-06T07:26:00.485Z,37.90
2019-02-06T07:30:56.174Z,37.53
2019-02-06T07:35:52.091Z,36.70
2019-02-06T07:40:47.818Z,35.37
2019-02-06T07:45:43.533Z,35.10
2019-02-06T07:50:39.357Z,35.00
2019-02-06T07:55:35.042Z,33.53
2019-02-06T08:00:30.771Z,38.33
2019-02-06T08:05:26.553Z,37.60
2019-02-06T08:10:26.673Z,37.57
2019-02-06T08:15:22.483Z,42.87
2019-02-06T08:20:21.671Z,37.33
2019-02-06T08:25:18.685Z,37.53
2019-02-06T08:30:19.011Z,41.23
2019-02-06T08:35:14.836Z,37.93
2019-02-06T08:40:12.409Z,36.10
2019-02-06T08:45:12.579Z,33.00
2019-02-06T08:50:10.301Z,34.63
2019-02-06T08:55:07.366Z,36.37
2019-02-06T09:00:04.781Z,36.17
2019-02-06T09:05:00.484Z,37.13
2019-02-06T09:09:56.227Z,37.40
2019-02-06T09:14:52.510Z,36.57
2019-02-06T09:19:48.397Z,39.33
2019-02-06T09:24:44.111Z,35.67
2019-02-06T09:29:39.823Z,36.67
2019-02-06T09:34:35.488Z,39.03
2019-02-06T09:39:31.181Z,35.63
2019-02-06T09:44:26.935Z,37.73
2019-02-06T09:49:22.987Z,36.00
2019-02-06T09:54:18.698Z,35.53
2019-02-06T09:59:14.413Z,37.40
2019-02-06T10:04:10.219Z,39.20
2019-02-06T10:09:06.228Z,39.90
2019-02-06T10:14:02.151Z,38.93
2019-02-06T10:18:57.841Z,38.63
2019-02-06T10:23:54.073Z,41.80
2019-02-06T10:28:49.793Z,42.23
2019-02-06T10:33:45.561Z,45.60
2019-02-06T10:38:41.394Z,44.60
2019-02-06T10:43:37.096Z,44.27
2019-02-06T10:48:32.809Z,43.10
2019-02-06T10:53:29.581Z,42.67
2019-02-06T10:58:25.719Z,42.63
2019-02-06T11:03:21.446Z,43.10
2019-02-06T11:08:17.609Z,43.30
2019-02-06T11:13:13.697Z,43.70
2019-02-06T11:18:09.489Z,41.23
2019-02-06T11:23:05.606Z,40.93
2019-02-06T11:28:01.322Z,50.37
2019-02-06T11:32:57.286Z,46.73
2019-02-06T11:37:53.091Z,52.03
2019-02-06T11:42:48.796Z,48.03
2019-02-06T11:47:44.809Z,43.90
2019-02-06T11:52:40.623Z,49.73
2019-02-06T11:57:36.317Z,46.13
2019-02-06T12:02:37.386Z,44.63
2019-02-06T12:07:29.833Z,43.83
2019-02-06T12:12:25.535Z,47.60
2019-02-06T12:17:21.251Z,44.00
2019-02-06T12:22:17.059Z,46.00
2019-02-06T12:27:12.757Z,41.10
2019-02-06T12:32:08.462Z,43.97
2019-02-06T12:37:04.358Z,44.03
2019-02-06T12:42:00.093Z,43.20
2019-02-06T12:46:55.909Z,41.90
2019-02-06T12:51:52.491Z,40.77
2019-02-06T12:56:48.339Z,45.90
2019-02-06T13:01:44.910Z,45.00
2019-02-06T13:06:40.621Z,40.27
2019-02-06T13:11:36.473Z,45.70
2019-02-06T13:16:32.251Z,37.53
2019-02-06T13:21:28.285Z,41.20
2019-02-06T13:26:23.996Z,37.57
2019-02-06T13:31:19.816Z,41.20
2019-02-06T13:36:15.738Z,35.63
2019-02-06T13:41:11.801Z,35.73
2019-02-06T13:46:07.806Z,32.13
2019-02-06T13:51:15.638Z,32.47
2019-02-06T13:56:01.667Z,30.47
2019-02-06T14:00:57.575Z,33.37
2019-02-06T14:05:53.359Z,32.17
2019-02-06T14:10:58.325Z,34.73
2019-02-06T14:15:47.129Z,29.53
2019-02-06T14:20:43.423Z,34.27
2019-02-06T14:25:41.121Z,29.17
2019-02-06T14:30:47.573Z,33.37
2019-02-06T14:35:45.199Z,30.87
2019-02-06T14:40:51.892Z,31.30
2019-02-06T14:45:55.686Z,34.03
2019-02-06T14:51:09.740Z,31.50
2019-02-06T14:56:24.046Z,35.83
2019-02-06T15:01:21.957Z,36.27
2019-02-06T15:06:19.569Z,38.20
2019-02-06T15:11:23.333Z,31.77
2019-02-06T15:16:24.042Z,37.10
2019-02-06T15:21:33.627Z,31.50
2019-02-06T15:26:31.591Z,32.87
2019-02-06T15:31:29.210Z,35.93
2019-02-06T15:36:26.806Z,36.97
2019-02-06T15:41:36.559Z,32.83
2019-02-06T15:46:34.175Z,32.53
2019-02-06T15:51:46.814Z,34.60
2019-02-06T15:56:47.188Z,35.43
2019-02-06T16:01:45.154Z,39.60
2019-02-06T16:06:43.239Z,41.30
2019-02-06T16:11:43.624Z,38.97
2019-02-06T16:16:56.829Z,40.23
2019-02-06T16:21:54.539Z,38.03
2019-02-06T16:27:08.681Z,39.13
2019-02-06T16:32:06.411Z,45.17
2019-02-06T16:37:04.011Z,36.17
2019-02-06T16:42:10.641Z,37.97
2019-02-06T16:47:08.281Z,42.80
2019-02-06T16:52:12.228Z,38.73
2019-02-06T16:57:12.917Z,38.70
2019-02-06T17:02:16.340Z,40.20
2019-02-06T17:07:13.974Z,38.30
2019-02-06T17:12:14.636Z,41.90
2019-02-06T17:17:12.523Z,43.57
2019-02-06T17:22:25.015Z,43.90
2019-02-06T17:27:22.629Z,38.30
2019-02-06T17:32:23.305Z,36.47
2019-02-06T17:37:37.840Z,38.77
2019-02-06T17:42:38.401Z,37.47
2019-02-06T17:47:53.312Z,36.83
2019-02-06T17:53:06.195Z,38.20
2019-02-06T17:58:02.128Z,35.70
2019-02-06T18:02:59.611Z,40.73
2019-02-06T18:07:55.579Z,39.87
2019-02-06T18:12:51.533Z,38.90
2019-02-06T18:17:47.201Z,34.00
2019-02-06T18:22:42.923Z,41.00
2019-02-06T18:27:38.724Z,39.77
2019-02-06T18:32:34.532Z,38.17
2019-02-06T18:37:30.465Z,34.90
2019-02-06T18:42:36.673Z,33.70
2019-02-06T18:47:24.338Z,42.90
2019-02-06T18:52:20.889Z,35.47
2019-02-06T18:57:16.733Z,38.47
2019-02-06T19:02:12.836Z,36.20
2019-02-06T19:07:08.717Z,38.40
2019-02-06T19:12:04.835Z,31.23
2019-02-06T19:17:00.786Z,33.00
2019-02-06T19:21:56.622Z,32.10
2019-02-06T19:26:52.435Z,34.17
2019-02-06T19:31:48.262Z,29.07
2019-02-06T19:36:44.082Z,36.20
2019-02-06T19:41:39.883Z,46.87
2019-02-06T19:46:35.804Z,33.23
2019-02-06T19:51:31.971Z,34.90
2019-02-06T19:56:27.778Z,33.93
2019-02-06T20:01:23.611Z,39.17
2019-02-06T20:06:28.583Z,38.37
2019-02-06T20:11:24.998Z,29.97
2019-02-06T20:16:21.000Z,32.33
2019-02-06T20:21:16.852Z,30.17
2019-02-06T20:26:12.855Z,30.00
2019-02-06T20:31:09.090Z,31.70
2019-02-06T20:36:04.889Z,27.27
2019-02-06T20:41:00.773Z,32.43
2019-02-06T20:45:56.594Z,32.40
2019-02-06T20:50:52.520Z,29.83
2019-02-06T20:55:48.401Z,35.30
2019-02-06T21:00:44.195Z,35.40
2019-02-06T21:05:40.101Z,35.90
2019-02-06T21:10:35.990Z,36.13
2019-02-06T21:15:32.887Z,32.53
2019-02-06T21:20:29.027Z,35.53
2019-02-06T21:25:25.660Z,36.77
2019-02-06T21:30:22.468Z,38.47
2019-02-06T21:35:18.511Z,32.77
2019-02-06T21:40:20.349Z,39.03
2019-02-06T21:45:16.233Z,36.43
2019-02-06T21:50:13.997Z,34.03
2019-02-06T21:55:11.563Z,34.27
2019-02-06T22:00:12.491Z,34.27
2019-02-06T22:05:08.423Z,33.97
2019-02-06T22:10:06.057Z,33.10
2019-02-06T22:15:03.377Z,39.50
2019-02-06T22:19:59.378Z,34.50
2019-02-06T22:24:55.195Z,33.93
2019-02-06T22:29:51.177Z,37.23
2019-02-06T22:34:46.887Z,32.93
2019-02-06T22:39:42.743Z,33.20
2019-02-06T22:44:38.495Z,31.40
2019-02-06T22:49:34.342Z,29.43
2019-02-06T22:54:30.419Z,32.13
2019-02-06T22:59:26.092Z,30.53
2019-02-06T23:04:21.998Z,35.13
2019-02-06T23:09:17.808Z,33.23
2019-02-06T23:14:17.618Z,32.10
2019-02-06T23:19:11.211Z,35.77
2019-02-06T23:24:07.021Z,34.40
2019-02-06T23:29:03.462Z,33.63
2019-02-06T23:33:59.157Z,33.87
2019-02-06T23:38:54.876Z,33.03
2019-02-06T23:43:50.578Z,33.07
2019-02-06T23:48:46.315Z,30.90
2019-02-06T23:53:42.033Z,30.10
2019-02-06T23:58:37.837Z,29.87
